Terminal Aerodrome Forecast
Issued by NWS Mt. Holly, NJ

Home | Current Version | Previous Version | Text Only | Print | Product List | Glossary On
Versions: 1 2 3 4 5 6 7 8 9 10 11 12 13 14 15 16 17 18 19 20 21 22 23 24 25 26 27 28 29
395
FTUS41 KPHI 250913 AAA
TAFACY
TAF AMD
KACY 250913Z 2509/2606 08012G20KT 6SM -RA BR OVC005
      TEMPO 2509/2512 3SM RA BR OVC003
     FM251200 10012KT P6SM -SHRA OVC006
     FM251400 12012KT P6SM OVC015
     FM251900 16010KT P6SM BKN035 PROB30 2520/2524 TSRA OVC010CB
     FM260000 17008KT P6SM BKN090
     FM260400 23006KT P6SM BKN100=

USA.gov is the U.S. government's official web portal to all federal, state and local government web resources and services.